Bookmark and Share
Track history (hours):
 

Patcona II

More information available from US FCC via Universal Licensing System and Coast Guard Vessel Documentation Center.

Last reported at 2014-Apr-19 13:04 UTC. Time now 2014-Apr-19 17:04 UTC.
Position N 29°45' W 095°06'.

; draft 9 m.

Type: Towing. MMSI: 366988960.

NotesDate/timePositionNaut miles runAvg speedWind from/ knotsBaromVisibWave heightAir tempDewpointWater temp
2014-Apr-19 13:04N 29°45' W 095°06'0 0.0
2014-Apr-19 12:22N 29°45' W 095°06'0 0.0
2014-Apr-19 04:07N 29°45' W 095°06'0 0.0
2014-Apr-19 00:10N 29°45' W 095°06'0 0.0
2014-Apr-18 23:32N 29°45' W 095°06'9 0.9
2014-Apr-18 13:29N 29°44' W 095°16'5 5.7
2014-Apr-18 12:33N 29°45' W 095°11'2 1.0
2014-Apr-18 10:20N 29°44' W 095°08'1 0.2
2014-Apr-18 05:32N 29°44' W 095°07'3 2.6
2014-Apr-18 04:34N 29°46' W 095°04'6 5.9
2014-Apr-18 03:34N 29°42' W 094°59'1 0.4
2014-Apr-18 01:15N 29°41' W 095°00'0 0.0
2014-Apr-18 00:33N 29°41' W 095°00'0 0.0
2014-Apr-17 23:33N 29°41' W 095°00'0 0.0
2014-Apr-17 22:33N 29°41' W 095°00'0 0.0
2014-Apr-17 21:29N 29°41' W 095°00'0 0.0
2014-Apr-17 20:23N 29°41' W 095°00'0 0.2
2014-Apr-17 19:29N 29°41' W 095°00'0 0.2
2014-Apr-17 18:25N 29°41' W 095°01'0 0.0
2014-Apr-17 17:31N 29°41' W 095°01'0 0.0
2014-Apr-17 16:31N 29°41' W 095°01'0 0.0
2014-Apr-17 15:31N 29°41' W 095°01'0 0.0
2014-Apr-17 14:31N 29°41' W 095°01'121012029.9
2014-Apr-17 14:25N 33°46' W 118°13'12101343.3
2014-Apr-17 13:31N 29°41' W 095°01'12107932.3
2014-Apr-17 13:21N 33°46' W 118°13'12101429.2
2014-Apr-17 12:31N 29°41' W 095°01'0 0.0
2014-Apr-17 11:31N 29°41' W 095°01'12101206.3
2014-Apr-17 10:30N 33°46' W 118°13'121026553.8
2014-Apr-17 10:28N 29°41' W 095°01'0 0.0
2014-Apr-17 09:31N 29°41' W 095°01'0 0.0
2014-Apr-17 08:31N 29°41' W 095°01'0 0.0
2014-Apr-17 07:25N 29°41' W 095°01'12101010.6
2014-Apr-17 06:13N 33°46' W 118°13'12101507.9
2014-Apr-17 05:25N 29°41' W 095°01'0 0.0
2014-Apr-17 04:23N 29°41' W 095°01'12106239.0
2014-Apr-17 04:11N 33°46' W 118°13'0 0.0
2014-Apr-17 03:33N 33°46' W 118°13'121018934.0
2014-Apr-17 03:29N 29°41' W 095°01'12101303.5
2014-Apr-17 02:33N 33°46' W 118°13'121016814.0
2014-Apr-17 02:29N 29°41' W 095°01'1 1.5
2014-Apr-17 01:33N 29°41' W 094°59'1211256446.8
2014-Apr-17 01:33N 33°46' W 118°13'0 0.0
2014-Apr-17 00:33N 33°46' W 118°13'1214874411.8
2014-Apr-17 00:33N 29°36' W 094°57'7 7.3
2014-Apr-16 23:33N 29°30' W 094°52'122012659.9
2014-Apr-16 23:27N 33°46' W 118°13'0 0.0
2014-Apr-16 22:24N 33°46' W 118°13'0 0.0
2014-Apr-16 20:23N 33°46' W 118°13'0 0.0
2014-Apr-16 19:20N 33°46' W 118°13'0 0.0
2014-Apr-16 17:09N 33°46' W 118°13'0 0.0
2014-Apr-16 16:28N 33°46' W 118°13'1221284.1
2014-Apr-16 12:11N 29°22' W 094°54'12211545.6
2014-Apr-16 11:23N 33°46' W 118°13'0 0.0
2014-Apr-16 10:22N 33°46' W 118°13'0 0.0
2014-Apr-16 09:06N 33°46' W 118°13'0 0.0
2014-Apr-16 08:29N 33°46' W 118°13'0 0.0
2014-Apr-16 07:33N 33°46' W 118°13'0 0.0
2014-Apr-16 06:19N 33°46' W 118°13'0 0.0
2014-Apr-16 05:33N 33°46' W 118°13'0 0.0
2014-Apr-16 04:33N 33°46' W 118°13'0 0.0
2014-Apr-16 03:33N 33°46' W 118°13'0 0.0
2014-Apr-16 02:33N 33°46' W 118°13'0 0.0
2014-Apr-16 01:33N 33°46' W 118°13'0 0.0
2014-Apr-16 00:33N 33°46' W 118°13'0 0.0
2014-Apr-15 23:33N 33°46' W 118°13'0 0.0
2014-Apr-15 22:33N 33°46' W 118°13'1221175869.3
2014-Apr-15 22:33N 29°28' W 094°51'12211229.9
2014-Apr-15 21:33N 33°46' W 118°13'1216182441.7
2014-Apr-15 21:33N 29°34' W 094°55'12161223.8
2014-Apr-15 20:33N 33°46' W 118°13'1212198263.0
2014-Apr-15 20:33N 29°40' W 094°59'12121216.0
2014-Apr-15 19:33N 33°46' W 118°13'120542134.0
2014-Apr-15 19:32N 29°45' W 095°04'12051244.9
2014-Apr-15 18:33N 33°46' W 118°13'1200127075.3
2014-Apr-15 18:33N 29°45' W 095°11'12001207.9
2014-Apr-15 17:33N 33°46' W 118°13'0 0.0
2014-Apr-15 16:33N 33°46' W 118°13'0 0.0
2014-Apr-15 14:23N 33°46' W 118°13'1204310.7
2014-Apr-15 10:31N 29°45' W 095°06'12041261.2
2014-Apr-15 09:34N 33°46' W 118°13'0 0.0
2014-Apr-15 08:34N 33°46' W 118°13'0 0.0
2014-Apr-15 07:34N 33°46' W 118°13'0 0.0
2014-Apr-15 06:34N 33°46' W 118°13'120434951.1
2014-Apr-15 06:32N 29°45' W 095°06'12041246.8
2014-Apr-15 05:34N 33°46' W 118°13'120466675.8
2014-Apr-15 05:33N 29°45' W 095°06'1204606.4
2014-Apr-15 03:34N 33°46' W 118°13'12041168.8
2014-Apr-15 02:32N 29°45' W 095°06'0 0.0
2014-Apr-15 01:32N 29°45' W 095°06'1204610.8
2014-Apr-14 23:34N 33°46' W 118°13'0 0.0
2014-Apr-14 22:34N 33°46' W 118°13'1204541891.1
2014-Apr-14 22:34N 29°46' W 095°05'12041206.5
2014-Apr-14 21:34N 33°46' W 118°13'0 0.0
2014-Apr-14 20:34N 33°46' W 118°13'0 0.0
2014-Apr-14 19:33N 33°46' W 118°13'0 0.0
2014-Apr-14 18:34N 33°46' W 118°13'1204240.8
2014-Apr-14 13:34N 29°45' W 095°06'1 0.2
2014-Apr-14 06:30N 29°47' W 095°06'0 0.1
2014-Apr-14 05:34N 29°47' W 095°06'8 0.6
2014-Apr-13 17:14N 29°43' W 095°14'13 0.4
2014-Apr-12 11:33N 29°37' W 095°01'0 0.0
2014-Apr-12 10:33N 29°37' W 095°01'0 0.0
2014-Apr-12 09:33N 29°37' W 095°01'0 0.0
2014-Apr-12 08:34N 29°37' W 095°01'0 0.0
2014-Apr-12 07:33N 29°37' W 095°01'0 0.0
2014-Apr-12 06:33N 29°37' W 095°01'0 0.0
2014-Apr-12 05:33N 29°37' W 095°01'0 0.3
2014-Apr-12 04:33N 29°37' W 095°01'4 3.7
2014-Apr-12 03:33N 29°40' W 094°58'6 5.7
2014-Apr-12 02:33N 29°44' W 095°03'12077503.1
2014-Apr-12 02:24N 33°46' W 118°13'0 0.0
2014-Apr-12 01:33N 33°46' W 118°13'12015392.9
2014-Apr-12 01:20N 29°44' W 095°09'12011550.8
2014-Apr-12 00:34N 33°46' W 118°13'11982157066.6
2014-Apr-12 00:33N 29°44' W 095°13'11981199.4
2014-Apr-11 23:34N 33°46' W 118°13'0 0.0
2014-Apr-11 22:33N 33°46' W 118°13'0 0.1
2014-Apr-11 21:33N 33°46' W 118°13'119820642.0
2014-Apr-11 21:30N 29°44' W 095°13'11981239.0
2014-Apr-11 20:32N 33°46' W 118°13'119988059.8
2014-Apr-11 20:31N 29°44' W 095°13'11991243.5
2014-Apr-11 19:33N 33°46' W 118°13'120348102.4
2014-Apr-11 19:32N 29°44' W 095°08'12031233.4
2014-Apr-11 18:33N 33°46' W 118°13'0 0.0
2014-Apr-11 17:28N 33°46' W 118°13'0 0.0
2014-Apr-11 16:34N 33°46' W 118°13'0 0.0
2014-Apr-11 15:22N 33°46' W 118°13'0 0.0
2014-Apr-11 14:31N 33°46' W 118°13'0 0.0
2014-Apr-11 13:33N 33°46' W 118°13'0 0.0
2014-Apr-11 12:33N 33°46' W 118°13'0 0.0
2014-Apr-11 11:33N 33°46' W 118°13'0 0.0
2014-Apr-11 10:34N 33°46' W 118°13'0 0.0
2014-Apr-11 09:33N 33°46' W 118°13'0 0.0
2014-Apr-11 08:33N 33°46' W 118°13'0 0.0
2014-Apr-11 07:34N 33°46' W 118°13'0 0.0
2014-Apr-11 06:33N 33°46' W 118°13'0 0.0
2014-Apr-11 05:33N 33°46' W 118°13'0 0.0
2014-Apr-11 04:30N 33°46' W 118°13'0 0.0
2014-Apr-11 03:33N 33°46' W 118°13'0 0.0
2014-Apr-11 02:33N 33°46' W 118°13'11991202.1
2014-Apr-11 01:33N 29°44' W 095°12'11993603.3
2014-Apr-11 01:13N 33°46' W 118°13'0 0.0
2014-Apr-11 00:33N 33°46' W 118°13'1202432829.2
2014-Apr-11 00:33N 29°44' W 095°08'12021205.3
2014-Apr-10 23:33N 33°46' W 118°13'120262728.8
2014-Apr-10 23:32N 29°44' W 095°08'12021218.6
2014-Apr-10 22:33N 33°46' W 118°13'0 0.0
2014-Apr-10 21:33N 33°46' W 118°13'0 0.0
2014-Apr-10 20:33N 33°46' W 118°13'120218900.8
2014-Apr-10 20:29N 29°44' W 095°08'12021291.7
2014-Apr-10 19:33N 33°46' W 118°13'1202480940.9
2014-Apr-10 19:33N 29°44' W 095°08'12021205.0
2014-Apr-10 18:33N 33°46' W 118°13'120336696.5
2014-Apr-10 18:31N 29°44' W 095°08'12031243.9
2014-Apr-10 17:33N 33°46' W 118°13'0 0.0
2014-Apr-10 16:33N 33°46' W 118°13'0 0.0
2014-Apr-10 15:33N 33°46' W 118°13'12043912.1
2014-Apr-10 15:15N 29°45' W 095°06'12041733.8
2014-Apr-10 14:33N 33°46' W 118°13'0 0.0
2014-Apr-10 13:33N 33°46' W 118°13'0 0.0
2014-Apr-10 12:33N 33°46' W 118°13'120420839.5
2014-Apr-10 12:30N 29°45' W 095°06'12041281.7
2014-Apr-10 11:33N 33°46' W 118°13'0 0.0
2014-Apr-10 10:33N 33°46' W 118°13'0 0.0
2014-Apr-10 09:33N 33°46' W 118°13'0 0.0
2014-Apr-10 08:32N 33°46' W 118°13'0 0.0
2014-Apr-10 07:33N 33°46' W 118°13'0 0.0
2014-Apr-10 06:33N 33°46' W 118°13'0 0.0
2014-Apr-10 05:33N 33°46' W 118°13'12041069.4
2014-Apr-10 04:26N 29°45' W 095°06'0 0.0
2014-Apr-10 03:33N 29°45' W 095°06'12044211.1
2014-Apr-10 03:16N 33°46' W 118°13'0 0.0
2014-Apr-10 02:33N 33°46' W 118°13'0 0.0
2014-Apr-10 01:33N 33°46' W 118°13'0 0.0
2014-Apr-10 00:26N 33°46' W 118°13'120420543.4
2014-Apr-10 00:22N 29°45' W 095°06'0 0.2
2014-Apr-09 23:33N 29°45' W 095°06'5 4.6
2014-Apr-09 22:33N 29°43' W 095°01'1209207180.3
2014-Apr-09 22:32N 33°46' W 118°13'12141234.7
2014-Apr-09 21:33N 29°37' W 094°57'121418834.2
2014-Apr-09 21:30N 33°46' W 118°13'12201295.9
2014-Apr-09 20:33N 29°30' W 094°52'12201143.7
2014-Apr-09 19:29N 33°46' W 118°13'0 0.0
2014-Apr-09 18:25N 33°46' W 118°13'0 0.0
2014-Apr-09 17:33N 33°46' W 118°13'0 0.0
2014-Apr-09 16:33N 33°46' W 118°13'0 0.0
2014-Apr-09 15:33N 33°46' W 118°13'0 0.0
2014-Apr-09 14:33N 33°46' W 118°13'0 0.0
2014-Apr-09 13:33N 33°46' W 118°13'  

Dump ship's entire track history

sailing weather and tide predictions

Patcona II — WDC2170 — position and weather